Time;durP1;ratioP1;P1;durP2;ratioP2;P2;SDS_P1;SDS_P2;PMS_P1;PMS_P2;Temp;Humidity;BMP_temperature;BMP_pressure;BME280_temperature;BME280_humidity;BME280_pressure;Samples;Min_cycle;Max_cycle;Signal;HPM_P1;HPM_P2
2024/01/03 00:00:42;;;;;;;8.20;7.40;;;;;;;3.06;100.00;100197.31;5023102;28;20041;-75
2024/01/03 00:03:09;;;;;;;2.05;1.95;;;;;;;3.43;100.00;100245.84;5018028;28;20038;-73
2024/01/03 00:05:37;;;;;;;0.30;0.30;;;;;;;3.32;100.00;100219.63;5023341;28;20057;-73
2024/01/03 00:08:13;;;;;;;1.52;1.48;;;;;;;3.26;100.00;100222.06;5019854;28;20694;-72
2024/01/03 00:10:54;;;;;;;0.95;0.95;;;;;;;2.88;100.00;100130.31;5023070;28;20140;-73
2024/01/03 00:13:34;;;;;;;2.05;0.65;;;;;;;3.05;100.00;100154.97;5024713;28;20127;-74
2024/01/03 00:15:59;;;;;;;0.30;0.30;;;;;;;3.65;100.00;100243.78;5019000;28;20070;-73
2024/01/03 00:18:46;;;;;;;2.10;2.00;;;;;;;3.61;100.00;100211.72;5023563;28;20049;-72
2024/01/03 00:21:17;;;;;;;0.30;0.30;;;;;;;3.60;100.00;100209.94;5020045;28;20043;-72
2024/01/03 00:23:50;;;;;;;0.38;0.38;;;;;;;3.78;100.00;100233.75;5023038;28;20065;-73
2024/01/03 00:26:16;;;;;;;0.30;0.30;;;;;;;3.65;100.00;100212.66;5019423;28;22102;-73
2024/01/03 00:28:42;;;;;;;0.30;0.30;;;;;;;3.69;100.00;100227.47;5023261;28;20045;-72
2024/01/03 00:31:10;;;;;;;0.50;0.50;;;;;;;3.10;100.00;100121.41;5021589;28;20068;-74
2024/01/03 00:33:41;;;;;;;2.60;2.50;;;;;;;3.52;100.00;100194.19;5018863;28;20041;-73
2024/01/03 00:36:11;;;;;;;0.30;0.30;;;;;;;3.09;100.00;100143.88;5021268;28;20426;-73
2024/01/03 00:38:38;;;;;;;0.38;0.38;;;;;;;3.61;100.00;100219.50;5021110;28;20045;-73
2024/01/03 00:41:04;;;;;;;0.30;0.30;;;;;;;3.64;100.00;100223.88;5022135;28;20045;-73
2024/01/03 00:43:30;;;;;;;0.40;0.40;;;;;;;3.42;100.00;100167.97;5018784;28;20150;-74
2024/01/03 00:45:56;;;;;;;0.30;0.30;;;;;;;3.41;100.00;100174.91;5017926;28;20128;-75
2024/01/03 00:48:22;;;;;;;0.40;0.40;;;;;;;3.32;100.00;100180.72;5022016;28;20040;-74
2024/01/03 00:50:48;;;;;;;0.40;0.40;;;;;;;3.09;100.00;100122.22;5020497;28;20080;-73
2024/01/03 00:53:15;;;;;;;0.40;0.40;;;;;;;3.64;100.00;100219.56;5021049;28;20063;-73
2024/01/03 00:55:42;;;;;;;0.82;0.82;;;;;;;3.84;100.00;100224.34;4996979;28;20062;-75
2024/01/03 00:58:08;;;;;;;0.60;0.60;;;;;;;3.49;100.00;100193.22;5020320;28;20045;-74
2024/01/03 01:00:34;;;;;;;0.98;0.98;;;;;;;3.35;100.00;100151.44;5023466;28;20054;-74
2024/01/03 01:03:00;;;;;;;0.57;0.57;;;;;;;3.34;100.00;100144.47;5020937;28;20103;-74
2024/01/03 01:05:26;;;;;;;0.30;0.30;;;;;;;3.62;100.00;100207.41;5021100;28;20460;-75
2024/01/03 01:07:51;;;;;;;2.25;2.15;;;;;;;3.74;100.00;100216.34;5020283;28;20049;-73
2024/01/03 01:10:17;;;;;;;5.70;5.47;;;;;;;3.66;100.00;100186.75;5016203;28;20489;-73
2024/01/03 01:12:43;;;;;;;0.60;0.60;;;;;;;3.43;100.00;100136.91;5022477;28;20056;-73
2024/01/03 01:15:08;;;;;;;0.35;0.35;;;;;;;3.00;100.00;100127.16;5025450;28;20452;-74
2024/01/03 01:17:35;;;;;;;15.35;4.30;;;;;;;2.54;100.00;100046.56;5013666;28;20054;-74
2024/01/03 01:20:01;;;;;;;0.30;0.30;;;;;;;3.64;100.00;100216.09;5018356;28;20054;-73
2024/01/03 01:22:26;;;;;;;0.45;0.45;;;;;;;3.27;100.00;100140.84;5026254;28;20041;-74
2024/01/03 01:24:52;;;;;;;0.47;0.47;;;;;;;3.86;100.00;100227.88;5008778;28;20081;-74
2024/01/03 01:27:17;;;;;;;1.00;1.00;;;;;;;3.47;100.00;100171.59;5024008;28;20029;-75
2024/01/03 01:29:43;;;;;;;0.30;0.30;;;;;;;3.23;100.00;100119.97;5022375;28;20034;-73
2024/01/03 01:32:08;;;;;;;0.40;0.40;;;;;;;3.80;100.00;100220.81;5022341;28;20120;-74
2024/01/03 01:34:35;;;;;;;0.45;0.45;;;;;;;3.48;100.00;100131.84;5008987;28;20071;-74
2024/01/03 01:37:00;;;;;;;0.70;0.50;;;;;;;3.88;100.00;100213.22;5021520;28;20054;-74
2024/01/03 01:39:26;;;;;;;0.30;0.30;;;;;;;3.59;100.00;100139.03;5022034;28;20045;-74
2024/01/03 01:41:53;;;;;;;0.32;0.32;;;;;;;3.90;100.00;100212.41;5020888;28;20040;-73
2024/01/03 01:44:18;;;;;;;0.40;0.40;;;;;;;3.98;100.00;100203.09;5025123;28;20044;-74
2024/01/03 01:46:45;;;;;;;0.30;0.30;;;;;;;3.98;100.00;100197.00;5023878;28;20045;-73
2024/01/03 01:49:18;;;;;;;0.93;0.70;;;;;;;3.53;100.00;100119.84;5021038;28;20064;-74
2024/01/03 01:51:44;;;;;;;0.28;0.28;;;;;;;3.71;100.00;100151.41;5023821;28;20128;-74
2024/01/03 01:54:12;;;;;;;1.58;1.48;;;;;;;4.07;100.00;100222.31;5028227;28;20029;-73
2024/01/03 01:56:40;;;;;;;0.73;0.73;;;;;;;3.45;100.00;100098.94;5006356;28;20437;-73
2024/01/03 01:59:09;;;;;;;1.38;1.30;;;;;;;3.86;100.00;100166.44;5025258;28;20045;-73
2024/01/03 02:01:35;;;;;;;0.60;0.60;;;;;;;4.16;100.00;100188.78;5016192;28;20040;-74
2024/01/03 02:04:06;;;;;;;0.20;0.20;;;;;;;3.53;100.00;100078.34;5023727;28;20398;-75
2024/01/03 02:06:33;;;;;;;2.15;2.05;;;;;;;3.81;100.00;100114.44;5022765;28;20037;-74
2024/01/03 02:08:59;;;;;;;1.00;0.90;;;;;;;3.57;100.00;100091.41;5024457;28;20041;-74
2024/01/03 02:11:24;;;;;;;0.30;0.30;;;;;;;4.17;100.00;100159.38;5020794;28;20096;-74
2024/01/03 02:13:50;;;;;;;0.60;0.60;;;;;;;4.06;100.00;100155.66;5019196;28;20045;-74
2024/01/03 02:16:15;;;;;;;1.30;1.30;;;;;;;3.86;100.00;100127.53;5018289;28;20056;-74
2024/01/03 02:18:41;;;;;;;0.57;0.57;;;;;;;4.05;100.00;100167.78;5021852;28;20616;-74
2024/01/03 02:21:15;;;;;;;0.40;0.40;;;;;;;3.59;100.00;100056.03;5019663;28;20448;-74
2024/01/03 02:23:40;;;;;;;;;;;;;;;4.28;100.00;100157.88;5012846;28;20090;-74
2024/01/03 02:26:06;;;;;;;0.45;0.45;;;;;;;3.88;100.00;100117.19;5019160;28;19937;-74
2024/01/03 02:28:33;;;;;;;0.52;0.52;;;;;;;3.90;100.00;100108.59;5017050;28;20076;-75
2024/01/03 02:31:00;;;;;;;2.42;2.28;;;;;;;3.46;100.00;100038.41;5018086;28;20948;-75
2024/01/03 02:33:25;;;;;;;0.30;0.30;;;;;;;3.65;100.00;100057.00;5020127;28;20082;-74
2024/01/03 02:35:51;;;;;;;1.15;1.15;;;;;;;3.71;100.00;100068.38;5023578;28;20546;-75
2024/01/03 02:38:17;;;;;;;0.30;0.30;;;;;;;3.57;100.00;100030.88;5017864;28;20050;-74
2024/01/03 02:40:44;;;;;;;0.60;0.60;;;;;;;4.09;100.00;100109.84;5012041;28;20505;-74
2024/01/03 02:43:10;;;;;;;0.55;0.55;;;;;;;4.29;100.00;100143.19;5018972;28;20037;-74
2024/01/03 02:45:35;;;;;;;0.30;0.30;;;;;;;3.91;100.00;100066.25;5026937;28;20140;-74
2024/01/03 02:48:02;;;;;;;1.98;1.90;;;;;;;3.74;100.00;100042.50;5027029;28;20456;-74
2024/01/03 02:50:27;;;;;;;0.40;0.40;;;;;;;3.74;100.00;100055.47;5017032;28;20057;-74
2024/01/03 02:52:53;;;;;;;1.40;1.40;;;;;;;3.92;100.00;100119.88;5021084;28;20046;-74
2024/01/03 02:55:18;;;;;;;2.35;2.25;;;;;;;3.63;100.00;100136.50;5007168;28;20077;-74
2024/01/03 02:57:44;;;;;;;0.63;0.63;;;;;;;3.90;100.00;100142.34;5027014;28;20049;-76
2024/01/03 03:00:11;;;;;;;2.28;0.98;;;;;;;4.10;100.00;100129.81;5024101;28;20030;-74
2024/01/03 03:02:36;;;;;;;1.15;1.08;;;;;;;4.04;100.00;100097.63;5025641;28;20045;-73
2024/01/03 03:05:02;;;;;;;7.55;6.75;;;;;;;4.17;100.00;100099.66;5028112;28;20140;-73
2024/01/03 03:07:27;;;;;;;0.30;0.30;;;;;;;4.22;100.00;100116.19;5031183;28;20055;-73
2024/01/03 03:09:53;;;;;;;0.50;0.50;;;;;;;4.10;100.00;100088.25;5027305;28;20144;-75
2024/01/03 03:12:18;;;;;;;0.85;0.85;;;;;;;3.39;100.00;99958.72;5022738;28;20055;-75
2024/01/03 03:14:44;;;;;;;2.95;2.65;;;;;;;4.16;100.00;100114.34;5033131;28;20033;-74
2024/01/03 03:17:10;;;;;;;2.10;2.00;;;;;;;4.05;100.00;100092.50;5024557;28;20421;-74
2024/01/03 03:19:35;;;;;;;0.50;0.50;;;;;;;3.77;100.00;100018.38;5026648;28;20064;-75
2024/01/03 03:22:01;;;;;;;0.40;0.40;;;;;;;4.35;100.00;100101.72;5026164;28;20052;-73
2024/01/03 03:24:27;;;;;;;0.50;0.50;;;;;;;4.01;100.00;100082.88;5025395;28;20029;-74
2024/01/03 03:26:53;;;;;;;0.88;0.88;;;;;;;3.73;100.00;100004.44;5027696;28;20376;-73
2024/01/03 03:29:19;;;;;;;4.07;3.92;;;;;;;3.61;100.00;99980.84;5028897;28;20057;-73
2024/01/03 03:31:44;;;;;;;0.40;0.40;;;;;;;4.09;100.00;100070.91;5036403;28;20122;-72
2024/01/03 03:34:10;;;;;;;0.40;0.40;;;;;;;4.22;100.00;100093.69;5025114;28;20057;-73
2024/01/03 03:36:35;;;;;;;0.50;0.50;;;;;;;4.01;100.00;100050.00;5032774;28;20052;-74
2024/01/03 03:39:01;;;;;;;0.30;0.30;;;;;;;4.20;100.00;100089.31;5024086;28;20040;-72
2024/01/03 03:41:26;;;;;;;0.73;0.73;;;;;;;3.78;100.00;100033.94;5023212;28;20045;-73
2024/01/03 03:43:52;;;;;;;0.40;0.40;;;;;;;4.22;100.00;100091.09;5000062;28;20387;-73
2024/01/03 03:46:18;;;;;;;0.40;0.40;;;;;;;3.64;100.00;99986.06;5014537;28;20075;-74
2024/01/03 03:48:44;;;;;;;0.30;0.30;;;;;;;3.77;100.00;100000.19;5016933;28;20048;-73
2024/01/03 03:51:10;;;;;;;0.80;0.80;;;;;;;4.30;100.00;100082.59;5023242;28;20037;-74
2024/01/03 03:53:35;;;;;;;0.30;0.30;;;;;;;3.63;100.00;99971.38;5025353;28;20045;-75
2024/01/03 03:56:01;;;;;;;3.80;2.72;;;;;;;4.29;100.00;100058.34;5023365;28;20132;-74
2024/01/03 03:58:27;;;;;;;0.80;0.68;;;;;;;4.37;100.00;100069.75;5000549;28;20489;-74
2024/01/03 04:00:52;;;;;;;0.40;0.40;;;;;;;3.78;100.00;99974.25;5013761;28;20052;-74
2024/01/03 04:03:19;;;;;;;0.30;0.30;;;;;;;4.16;100.00;100083.19;5032600;28;20029;-75
2024/01/03 04:05:45;;;;;;;1.27;1.15;;;;;;;3.60;100.00;99981.66;5021406;28;20037;-73
2024/01/03 04:08:10;;;;;;;0.40;0.40;;;;;;;4.17;100.00;100066.78;5028853;28;20060;-74
2024/01/03 04:10:37;;;;;;;2.97;2.88;;;;;;;4.30;100.00;100038.44;5014099;28;20154;-74
2024/01/03 04:13:02;;;;;;;0.28;0.28;;;;;;;4.31;100.00;100058.34;5022012;28;20098;-73
2024/01/03 04:15:28;;;;;;;2.63;2.53;;;;;;;3.84;100.00;100042.69;5012714;28;20069;-73
2024/01/03 04:17:54;;;;;;;4.40;4.20;;;;;;;4.09;100.00;100060.53;5024958;28;20126;-74
2024/01/03 04:20:20;;;;;;;5.50;3.28;;;;;;;4.19;100.00;100056.41;5021007;28;20054;-74
2024/01/03 04:22:46;;;;;;;2.35;2.25;;;;;;;4.29;100.00;100062.69;5022590;28;20490;-74
2024/01/03 04:25:14;;;;;;;0.75;0.75;;;;;;;3.92;100.00;99979.72;5022010;28;20052;-72
2024/01/03 04:27:39;;;;;;;3.33;3.22;;;;;;;4.09;100.00;100055.34;5025899;28;23817;-73
2024/01/03 04:30:05;;;;;;;2.38;2.28;;;;;;;4.23;100.00;100037.44;5021336;28;20801;-72
2024/01/03 04:32:32;;;;;;;0.30;0.30;;;;;;;3.79;100.00;99977.72;5017701;28;20068;-73
2024/01/03 04:34:59;;;;;;;2.95;2.70;;;;;;;4.19;100.00;100049.50;5016563;28;20062;-75
2024/01/03 04:37:25;;;;;;;0.63;0.63;;;;;;;4.02;100.00;100023.19;5001705;28;20149;-74
2024/01/03 04:39:50;;;;;;;0.30;0.30;;;;;;;4.29;100.00;100037.56;5019538;28;20499;-73
2024/01/03 04:42:16;;;;;;;0.32;0.32;;;;;;;4.25;100.00;100032.28;5013861;28;20159;-73
2024/01/03 04:44:42;;;;;;;0.47;0.40;;;;;;;4.27;100.00;100023.69;5018825;28;20083;-73
2024/01/03 04:47:08;;;;;;;0.70;0.70;;;;;;;4.53;100.00;100063.13;5021719;28;20054;-72
2024/01/03 04:49:34;;;;;;;0.40;0.40;;;;;;;3.97;100.00;99961.66;5002152;28;20157;-73
2024/01/03 04:52:00;;;;;;;0.63;0.63;;;;;;;4.38;100.00;100039.47;5023140;28;20052;-74
2024/01/03 04:54:25;;;;;;;0.30;0.30;;;;;;;4.46;100.00;100056.06;5018077;28;20407;-74
2024/01/03 04:56:51;;;;;;;0.40;0.40;;;;;;;3.73;100.00;99951.66;5021691;28;20044;-74
2024/01/03 04:59:17;;;;;;;6.20;5.82;;;;;;;3.58;100.00;99950.53;5020713;28;20045;-73
2024/01/03 05:01:42;;;;;;;4.10;3.80;;;;;;;4.43;100.00;100051.69;5024833;28;20049;-73
2024/01/03 05:04:08;;;;;;;0.40;0.40;;;;;;;4.50;100.00;100075.19;5030617;28;20215;-73
2024/01/03 05:06:35;;;;;;;0.30;0.30;;;;;;;3.98;100.00;99990.25;5024470;28;20064;-73
2024/01/03 05:09:01;;;;;;;0.30;0.30;;;;;;;4.26;100.00;100031.44;5012199;28;20089;-74
2024/01/03 05:11:27;;;;;;;0.50;0.40;;;;;;;4.53;100.00;100063.13;5003288;28;20067;-74
2024/01/03 05:13:53;;;;;;;1.45;1.40;;;;;;;4.53;100.00;100042.34;5022598;28;20493;-73
2024/01/03 05:16:19;;;;;;;0.25;0.25;;;;;;;4.37;100.00;100041.16;4999425;28;20069;-73
2024/01/03 05:18:44;;;;;;;0.30;0.30;;;;;;;4.40;100.00;100036.06;5023367;28;20049;-73
2024/01/03 05:21:10;;;;;;;0.65;0.65;;;;;;;4.19;100.00;100002.75;5018019;28;20029;-73
2024/01/03 05:23:36;;;;;;;0.55;0.55;;;;;;;3.36;100.00;99850.63;5022720;28;20191;-74
2024/01/03 05:26:02;;;;;;;0.30;0.30;;;;;;;4.00;100.00;99964.28;5021065;28;20057;-73
2024/01/03 05:28:29;;;;;;;1.35;0.85;;;;;;;3.92;100.00;99952.91;5028066;28;20095;-74
2024/01/03 05:30:54;;;;;;;0.57;0.57;;;;;;;4.47;100.00;100023.16;5026046;28;20056;-73
2024/01/03 05:33:20;;;;;;;0.75;0.65;;;;;;;4.51;100.00;100023.25;5025458;28;20025;-76
2024/01/03 05:35:45;;;;;;;0.30;0.30;;;;;;;4.11;100.00;99962.78;5019226;28;20072;-74
2024/01/03 05:38:11;;;;;;;0.43;0.43;;;;;;;4.73;100.00;100053.09;5017226;28;20085;-74
2024/01/03 05:40:36;;;;;;;0.50;0.50;;;;;;;4.27;100.00;99994.25;5026016;28;20049;-74
2024/01/03 05:43:02;;;;;;;1.40;1.40;;;;;;;4.49;100.00;100013.69;5024484;28;20492;-73
2024/01/03 05:45:28;;;;;;;1.23;1.15;;;;;;;4.70;100.00;100050.44;5018273;28;20065;-75
2024/01/03 05:47:53;;;;;;;0.63;0.63;;;;;;;4.69;100.00;100048.69;5018479;28;20112;-74
2024/01/03 05:50:19;;;;;;;0.30;0.30;;;;;;;4.65;100.00;100023.50;5017594;28;20041;-73
2024/01/03 05:52:44;;;;;;;4.03;3.83;;;;;;;4.17;100.00;99947.34;5023105;28;20061;-73
2024/01/03 05:55:10;;;;;;;3.30;3.15;;;;;;;4.61;100.00;100037.28;5026399;28;20055;-74
2024/01/03 05:57:35;;;;;;;0.63;0.30;;;;;;;4.55;100.00;100026.78;5021481;28;21488;-73
2024/01/03 06:00:02;;;;;;;0.40;0.40;;;;;;;4.59;100.00;100002.63;5022704;28;20464;-74
2024/01/03 06:02:27;;;;;;;1.20;1.10;;;;;;;4.76;100.00;100027.16;5027209;28;20072;-76
2024/01/03 06:04:53;;;;;;;1.13;1.05;;;;;;;4.23;100.00;99911.06;5006246;28;20768;-72
2024/01/03 06:07:18;;;;;;;0.30;0.30;;;;;;;4.30;100.00;99934.56;5024185;28;20552;-73
2024/01/03 06:09:44;;;;;;;0.30;0.30;;;;;;;4.92;100.00;100019.63;5024076;28;20056;-73
2024/01/03 06:12:10;;;;;;;0.40;0.40;;;;;;;4.86;100.00;100007.41;5019881;28;20451;-73
2024/01/03 06:14:35;;;;;;;14.38;9.75;;;;;;;4.32;100.00;99907.75;5022879;28;20037;-74
2024/01/03 06:17:01;;;;;;;12.50;11.60;;;;;;;4.94;100.00;100031.81;5024510;28;20109;-74
2024/01/03 06:19:26;;;;;;;1.45;1.40;;;;;;;5.04;100.00;100027.63;5018016;28;20461;-71
2024/01/03 06:21:52;;;;;;;2.90;2.80;;;;;;;4.66;100.00;99962.91;5017045;28;20057;-73
2024/01/03 06:24:17;;;;;;;0.40;0.40;;;;;;;5.11;100.00;100028.59;5022580;28;20033;-74
2024/01/03 06:26:43;;;;;;;4.85;4.32;;;;;;;4.77;100.00;99956.13;5019443;28;20437;-74
2024/01/03 06:29:08;;;;;;;2.53;2.42;;;;;;;5.18;100.00;100026.13;5013285;28;20184;-74
2024/01/03 06:31:35;;;;;;;1.50;1.45;;;;;;;5.01;100.00;100001.56;5024574;28;20542;-76
2024/01/03 06:34:01;;;;;;;0.47;0.47;;;;;;;5.16;100.00;100007.00;5024748;28;20144;-73
2024/01/03 06:36:26;;;;;;;0.43;0.43;;;;;;;5.28;100.00;100020.19;5019343;28;20187;-75
2024/01/03 06:38:52;;;;;;;1.17;1.13;;;;;;;5.20;100.00;99984.53;5027263;28;20029;-74
2024/01/03 06:41:18;;;;;;;0.68;0.68;;;;;;;5.25;100.00;100006.28;5025231;28;20048;-74
2024/01/03 06:43:45;;;;;;;0.30;0.30;;;;;;;5.12;100.00;100000.00;5030159;28;20041;-74
2024/01/03 06:46:11;;;;;;;8.60;7.90;;;;;;;5.29;100.00;99992.44;5020701;28;20145;-74
2024/01/03 06:48:36;;;;;;;0.63;0.63;;;;;;;4.80;100.00;99919.81;5031401;28;20060;-73
2024/01/03 06:51:03;;;;;;;0.30;0.30;;;;;;;5.23;100.00;99998.44;5031563;28;20448;-74
2024/01/03 06:53:30;;;;;;;2.58;2.47;;;;;;;4.63;100.00;99882.28;5036129;28;20060;-74
2024/01/03 06:55:56;;;;;;;0.68;0.68;;;;;;;4.73;100.00;99875.50;5040789;28;20037;-74
2024/01/03 06:58:21;;;;;;;2.33;2.25;;;;;;;4.73;100.00;99899.78;5038968;28;20462;-75
2024/01/03 07:00:47;;;;;;;0.57;0.57;;;;;;;5.31;100.00;99988.16;5036041;28;20037;-73
2024/01/03 07:03:12;;;;;;;1.77;1.67;;;;;;;4.51;100.00;99861.31;5030137;28;20025;-73
2024/01/03 07:05:40;;;;;;;3.60;3.25;;;;;;;5.27;100.00;99968.16;5012724;28;20072;-73
2024/01/03 07:08:07;;;;;;;0.50;0.50;;;;;;;4.59;100.00;99877.91;5028846;28;20037;-75
2024/01/03 07:10:32;;;;;;;0.40;0.40;;;;;;;4.83;100.00;99898.19;5029200;28;20074;-74
2024/01/03 07:12:58;;;;;;;1.70;1.65;;;;;;;5.21;100.00;99958.53;5026750;28;20077;-74
2024/01/03 07:15:25;;;;;;;1.27;1.17;;;;;;;5.45;100.00;99965.78;5025580;28;20473;-73
2024/01/03 07:17:51;;;;;;;0.50;0.50;;;;;;;5.33;100.00;99947.41;5019178;28;20044;-75
2024/01/03 07:20:16;;;;;;;0.50;0.43;;;;;;;5.10;100.00;99934.09;5027153;28;20049;-75
2024/01/03 07:22:42;;;;;;;1.30;1.23;;;;;;;5.20;100.00;99929.91;5027758;28;20557;-73
2024/01/03 07:25:08;;;;;;;0.60;0.60;;;;;;;4.85;100.00;99894.75;5026910;28;20053;-75
2024/01/03 07:27:33;;;;;;;2.92;2.80;;;;;;;4.75;100.00;99902.38;5028924;28;20112;-74
2024/01/03 07:29:59;;;;;;;0.22;0.22;;;;;;;4.78;100.00;99892.91;5024973;28;20068;-74
2024/01/03 07:32:24;;;;;;;1.63;1.52;;;;;;;5.21;100.00;99944.66;5033423;28;20076;-73
2024/01/03 07:34:50;;;;;;;0.40;0.40;;;;;;;5.29;100.00;99969.03;5029336;28;20060;-74
2024/01/03 07:37:15;;;;;;;0.40;0.40;;;;;;;4.97;100.00;99911.38;5027777;28;20397;-73
2024/01/03 07:39:41;;;;;;;0.50;0.50;;;;;;;4.95;100.00;99963.34;5028900;28;20049;-73
2024/01/03 07:42:07;;;;;;;0.30;0.30;;;;;;;4.56;100.00;99872.66;5022707;28;20037;-73
2024/01/03 07:44:41;;;;;;;0.40;0.40;;;;;;;4.79;100.00;99883.38;5031421;28;20049;-74
2024/01/03 07:47:06;;;;;;;0.95;0.95;;;;;;;4.48;100.00;99871.66;5026926;28;20100;-73
2024/01/03 07:49:32;;;;;;;0.40;0.40;;;;;;;4.71;100.00;99885.00;5030197;28;20421;-75
2024/01/03 07:51:58;;;;;;;0.30;0.30;;;;;;;4.61;100.00;99890.06;5025433;28;20064;-74
2024/01/03 07:54:23;;;;;;;0.30;0.30;;;;;;;5.18;100.00;99984.50;5035503;28;20119;-75
2024/01/03 07:56:49;;;;;;;0.30;0.30;;;;;;;4.60;100.00;99874.44;5028636;28;20417;-75
2024/01/03 07:59:14;;;;;;;3.67;3.55;;;;;;;5.13;100.00;99974.88;5031730;28;20176;-74
2024/01/03 08:01:40;;;;;;;2.25;1.58;;;;;;;5.06;100.00;99919.31;5025284;28;20133;-76
2024/01/03 08:04:06;;;;;;;0.45;0.45;;;;;;;5.26;100.00;99948.19;5025954;28;20527;-74
2024/01/03 08:06:31;;;;;;;0.38;0.38;;;;;;;5.31;100.00;99930.91;5024360;28;20094;-74
2024/01/03 08:08:57;;;;;;;0.50;0.50;;;;;;;4.99;100.00;99860.28;5034382;28;20099;-74
2024/01/03 08:11:22;;;;;;;0.32;0.32;;;;;;;4.66;100.00;99801.78;5016819;28;20061;-74
2024/01/03 08:13:48;;;;;;;0.30;0.30;;;;;;;5.46;100.00;99920.72;5033281;28;20095;-74
2024/01/03 08:16:13;;;;;;;0.40;0.40;;;;;;;5.69;100.00;99948.78;5030437;28;20081;-74
2024/01/03 08:18:39;;;;;;;0.32;0.32;;;;;;;5.96;100.00;99963.84;5025486;28;20120;-74
2024/01/03 08:21:05;;;;;;;1.23;1.13;;;;;;;5.88;100.00;99927.28;5021449;28;20109;-74
2024/01/03 08:23:31;;;;;;;254.38;17.13;;;;;;;5.68;100.00;99888.00;5025560;28;20486;-74
2024/01/03 08:25:57;;;;;;;0.30;0.30;;;;;;;6.20;100.00;99968.44;5028849;28;20052;-74
2024/01/03 08:28:22;;;;;;;0.43;0.43;;;;;;;5.96;100.00;99937.81;5020488;28;20393;-74
2024/01/03 08:30:48;;;;;;;1.35;1.35;;;;;;;5.61;100.00;99932.16;5012391;28;20093;-74
2024/01/03 08:33:14;;;;;;;0.90;0.90;;;;;;;5.23;100.00;99841.53;5030769;28;20540;-74
2024/01/03 08:35:40;;;;;;;0.95;0.95;;;;;;;5.97;100.00;99923.97;5030764;28;20493;-74
2024/01/03 08:38:05;;;;;;;30.63;20.13;;;;;;;6.10;100.00;99910.19;5043200;28;20041;-74
2024/01/03 08:40:31;;;;;;;0.30;0.30;;;;;;;6.29;100.00;99939.03;5028818;28;20068;-75
2024/01/03 08:42:59;;;;;;;0.30;0.30;;;;;;;5.88;100.00;99856.13;5033569;28;20049;-74
2024/01/03 08:45:25;;;;;;;0.35;0.35;;;;;;;6.21;100.00;99928.53;5037031;28;20032;-73
2024/01/03 08:47:50;;;;;;;0.20;0.20;;;;;;;5.98;100.00;99909.19;5031413;28;20035;-74
2024/01/03 08:50:17;;;;;;;2.83;2.67;;;;;;;6.32;100.00;99907.78;5012027;28;20033;-73
2024/01/03 08:52:44;;;;;;;1.15;1.05;;;;;;;5.92;100.00;99842.25;5028554;28;20050;-74
2024/01/03 08:55:10;;;;;;;0.20;0.20;;;;;;;5.95;100.00;99846.66;5034776;28;20512;-75
2024/01/03 08:57:36;;;;;;;1.05;1.05;;;;;;;6.05;100.00;99856.31;5026129;28;20183;-74
2024/01/03 09:00:03;;;;;;;0.30;0.30;;;;;;;6.58;100.00;99928.88;5008077;28;20033;-74
2024/01/03 09:02:28;;;;;;;0.30;0.30;;;;;;;6.45;100.00;99888.78;5007181;28;20178;-74
2024/01/03 09:04:55;;;;;;;0.30;0.30;;;;;;;6.50;100.00;99897.50;5022321;28;20497;-74
2024/01/03 09:07:21;;;;;;;1.65;1.55;;;;;;;6.12;100.00;99850.31;5022052;28;20508;-73
2024/01/03 09:09:47;;;;;;;0.52;0.52;;;;;;;6.06;100.00;99838.13;5027986;28;20068;-75
2024/01/03 09:12:12;;;;;;;0.75;0.75;;;;;;;6.52;100.00;99893.19;5024801;28;20591;-74
2024/01/03 09:14:40;;;;;;;0.90;0.90;;;;;;;6.60;100.00;99897.59;5024954;28;20095;-75
2024/01/03 09:17:05;;;;;;;1.15;1.15;;;;;;;6.06;100.00;99814.66;5022136;28;20088;-73
2024/01/03 09:19:31;;;;;;;0.30;0.30;;;;;;;6.70;100.00;99894.22;5024052;28;20041;-75
2024/01/03 09:21:59;;;;;;;0.30;0.30;;;;;;;6.11;100.00;99780.81;5027816;28;20053;-73
2024/01/03 09:24:26;;;;;;;0.40;0.40;;;;;;;6.57;100.00;99856.72;5017395;28;20456;-76
2024/01/03 09:26:51;;;;;;;1.15;0.98;;;;;;;6.59;100.00;99861.97;5005676;28;20064;-74
2024/01/03 09:29:17;;;;;;;0.40;0.40;;;;;;;6.83;100.00;99882.97;5015329;28;20077;-74
2024/01/03 09:31:43;;;;;;;0.50;0.50;;;;;;;6.33;100.00;99790.56;5001365;28;20144;-73
2024/01/03 09:34:09;;;;;;;0.30;0.30;;;;;;;6.41;100.00;99807.97;5023715;28;20787;-73
2024/01/03 09:36:34;;;;;;;0.30;0.30;;;;;;;6.89;100.00;99866.53;5027461;28;20144;-74
2024/01/03 09:39:00;;;;;;;1.10;1.05;;;;;;;7.10;100.00;99890.13;5026320;28;20096;-74
2024/01/03 09:41:26;;;;;;;3.00;2.80;;;;;;;6.83;100.00;99841.25;5007177;28;20059;-74
2024/01/03 09:43:55;;;;;;;0.30;0.30;;;;;;;6.71;100.00;99786.44;5008388;28;20120;-75
2024/01/03 09:46:21;;;;;;;1.38;1.38;;;;;;;7.09;100.00;99856.19;5023936;28;20041;-74
2024/01/03 09:48:49;;;;;;;0.30;0.30;;;;;;;7.06;100.00;99875.31;5024673;28;20092;-73
2024/01/03 09:51:15;;;;;;;0.35;0.35;;;;;;;7.11;100.00;99863.16;5007930;28;20045;-74
2024/01/03 09:53:41;;;;;;;0.50;0.50;;;;;;;7.22;100.00;99867.56;5027524;28;20031;-75
2024/01/03 09:56:07;;;;;;;0.38;0.38;;;;;;;6.75;100.00;99796.03;5026250;28;20045;-75
2024/01/03 09:58:36;;;;;;;0.30;0.30;;;;;;;7.35;100.00;99885.91;5018171;28;20046;-75
2024/01/03 10:01:03;;;;;;;9.40;3.83;;;;;;;7.27;100.00;99877.16;5027261;28;20045;-74
2024/01/03 10:03:29;;;;;;;0.30;0.30;;;;;;;7.27;100.00;99882.38;5025050;28;20382;-75
2024/01/03 10:06:04;;;;;;;0.52;0.52;;;;;;;6.89;100.00;99811.75;5026042;28;20539;-75
2024/01/03 10:08:30;;;;;;;0.30;0.30;;;;;;;7.32;100.00;99872.81;5023466;28;20088;-76
2024/01/03 10:10:56;;;;;;;0.20;0.20;;;;;;;7.15;100.00;99853.63;5026716;28;20517;-76
2024/01/03 10:13:28;;;;;;;5.22;4.88;;;;;;;6.84;100.00;99772.63;5024877;28;20060;-73
2024/01/03 10:15:53;;;;;;;0.30;0.30;;;;;;;7.04;100.00;99790.94;5026040;28;20061;-74
2024/01/03 10:18:21;;;;;;;2.70;1.55;;;;;;;7.19;100.00;99826.69;5024959;28;20115;-76
2024/01/03 10:20:46;;;;;;;0.30;0.30;;;;;;;7.43;100.00;99851.13;5022838;28;20465;-74
2024/01/03 10:23:18;;;;;;;0.30;0.30;;;;;;;6.93;100.00;99767.44;5027495;28;20073;-76
2024/01/03 10:25:44;;;;;;;2.80;2.70;;;;;;;6.94;100.00;99763.94;5024412;28;20053;-74
2024/01/03 10:28:16;;;;;;;0.28;0.28;;;;;;;7.55;100.00;99841.56;5024004;28;20080;-74
2024/01/03 10:30:42;;;;;;;0.25;0.25;;;;;;;6.95;100.00;99741.34;5027172;28;20048;-74
2024/01/03 10:33:09;;;;;;;1.75;0.75;;;;;;;7.36;100.00;99839.78;5026830;28;20037;-75
2024/01/03 10:35:39;;;;;;;1.35;1.25;;;;;;;7.03;100.00;99747.47;5015019;28;20091;-75
2024/01/03 10:38:05;;;;;;;2.83;2.72;;;;;;;7.52;100.00;99817.22;5026304;28;20057;-75
2024/01/03 10:40:32;;;;;;;0.30;0.30;;;;;;;6.87;100.00;99719.59;5005976;28;20451;-74
2024/01/03 10:42:59;;;;;;;1.23;1.23;;;;;;;6.22;100.00;99604.63;5019643;28;20049;-76
2024/01/03 10:45:26;;;;;;;0.73;0.73;;;;;;;7.28;100.00;99771.91;5023757;28;20112;-75
2024/01/03 10:47:52;;;;;;;0.40;0.40;;;;;;;6.94;100.00;99700.50;5022830;28;20038;-75
2024/01/03 10:50:18;;;;;;;0.55;0.55;;;;;;;7.44;100.00;99801.50;5025495;28;20509;-75
2024/01/03 10:52:45;;;;;;;1.60;1.58;;;;;;;7.33;100.00;99772.78;5021967;28;20042;-73
2024/01/03 10:55:24;;;;;;;1.65;1.35;;;;;;;7.47;100.00;99792.81;5020643;28;20211;-75
2024/01/03 10:58:12;;;;;;;2.40;1.33;;;;;;;7.33;100.00;99764.97;5023785;28;20597;-74
2024/01/03 11:01:04;;;;;;;0.30;0.30;;;;;;;7.58;100.00;99798.94;5025658;28;20038;-73
2024/01/03 11:03:42;;;;;;;0.20;0.20;;;;;;;7.49;100.00;99789.38;5003030;28;20042;-74
2024/01/03 11:06:07;;;;;;;0.35;0.35;;;;;;;7.54;100.00;99789.38;5023867;28;20036;-75
2024/01/03 11:08:49;;;;;;;0.30;0.30;;;;;;;7.51;100.00;99785.00;5024359;28;20045;-74
2024/01/03 11:11:38;;;;;;;0.50;0.50;;;;;;;7.63;100.00;99781.53;5022924;28;20045;-74
2024/01/03 11:14:19;;;;;;;0.28;0.28;;;;;;;7.63;100.00;99775.44;5017366;28;20061;-74
2024/01/03 11:16:45;;;;;;;4.15;3.85;;;;;;;7.09;100.00;99686.63;5019247;28;20045;-74
2024/01/03 11:19:11;;;;;;;0.20;0.20;;;;;;;7.18;100.00;99689.25;5013936;28;20108;-74
2024/01/03 11:21:39;;;;;;;1.60;1.50;;;;;;;7.60;100.00;99745.00;5021044;28;20723;-74
2024/01/03 11:24:24;;;;;;;12.43;11.77;;;;;;;7.63;100.00;99760.66;5012842;28;20087;-73
2024/01/03 11:26:56;;;;;;;0.30;0.30;;;;;;;7.65;100.00;99758.91;5021870;28;20049;-76